Time;durP1;ratioP1;P1;durP2;ratioP2;P2;SDS_P1;SDS_P2;PMS_P1;PMS_P2;Temp;Humidity;BMP_temperature;BMP_pressure;BME280_temperature;BME280_humidity;BME280_pressure;Samples;Min_cycle;Max_cycle;Signal;HPM_P1;HPM_P2
2022/03/17 00:00:57;;;;;;;;;;;;;;;10.15;74.79;101927.13;5100407;28;19966;-74
2022/03/17 00:03:23;;;;;;;;;;;;;;;10.16;76.00;101916.03;5100095;28;19957;-74
2022/03/17 00:05:48;;;;;;;;;;;;;;;10.13;76.30;101921.00;5104353;28;19970;-74
2022/03/17 00:08:14;;;;;;;;;;;;;;;10.20;75.70;101929.09;5104860;28;19931;-74
2022/03/17 00:10:39;;;;;;;;;;;;;;;10.18;75.81;101917.84;5105442;28;20258;-74
2022/03/17 00:13:04;;;;;;;;;;;;;;;10.20;75.28;101936.81;5107088;28;20436;-74
2022/03/17 00:15:29;;;;;;;;;;;;;;;10.32;74.62;101925.38;5105902;28;19920;-74
2022/03/17 00:17:55;;;;;;;;;;;;;;;10.25;74.81;101921.59;5105694;28;19928;-74
2022/03/17 00:20:22;;;;;;;;;;;;;;;10.36;74.60;101915.28;5107302;28;19938;-74
2022/03/17 00:22:47;;;;;;;;;;;;;;;10.18;75.34;101914.38;5104654;28;19916;-74
2022/03/17 00:25:13;;;;;;;;;;;;;;;10.16;75.80;101927.19;5104191;28;19927;-74
2022/03/17 00:27:38;;;;;;;;;;;;;;;10.18;75.71;101917.84;5107201;28;20225;-74
2022/03/17 00:30:07;;;;;;;;;;;;;;;10.19;75.44;101927.34;5108005;28;19924;-74
2022/03/17 00:32:32;;;;;;;;;;;;;;;10.15;76.07;101915.16;5105772;28;19924;-75
2022/03/17 00:37:41;;;;;;;;;;;;;;;10.12;75.75;101914.97;5111039;28;19927;-74
2022/03/17 00:40:06;;;;;;;;;;;;;;;10.07;75.46;101913.00;5114486;28;19924;-75
2022/03/17 00:42:32;;;;;;;;;;;;;;;10.04;75.40;101918.91;5109025;28;19928;-74
2022/03/17 00:44:57;;;;;;;;;;;;;;;10.00;76.21;101909.28;5113924;28;19934;-73
2022/03/17 00:47:22;;;;;;;;;;;;;;;10.02;75.57;101924.78;5109098;28;20442;-74
2022/03/17 00:49:47;;;;;;;;;;;;;;;9.97;76.08;101934.84;5110584;28;19916;-75
2022/03/17 00:52:14;;;;;;;;;;;;;;;9.98;75.77;101923.75;5106193;28;20328;-75
2022/03/17 00:54:41;;;;;;;;;;;;;;;9.98;76.17;101926.31;5105663;28;20370;-74
2022/03/17 00:57:06;;;;;;;;;;;;;;;9.91;76.50;101934.56;5103301;28;20398;-75
2022/03/17 00:59:32;;;;;;;;;;;;;;;9.81;77.24;101922.06;5100556;28;19931;-75
2022/03/17 01:01:57;;;;;;;;;;;;;;;9.84;76.68;101932.50;5103112;27;20010;-75
2022/03/17 01:04:22;;;;;;;;;;;;;;;9.89;76.48;101926.78;5105240;27;19923;-75
2022/03/17 01:06:47;;;;;;;;;;;;;;;10.03;77.08;101927.41;5105670;28;20018;-75
2022/03/17 01:09:13;;;;;;;;;;;;;;;9.93;77.95;101923.53;5105202;27;19992;-75
2022/03/17 01:11:38;;;;;;;;;;;;;;;10.14;77.17;101923.66;5104194;28;19920;-75
2022/03/17 01:14:03;;;;;;;;;;;;;;;10.12;77.09;101927.84;5105719;28;19989;-75
2022/03/17 01:16:28;;;;;;;;;;;;;;;10.05;77.30;101933.50;5103181;28;19927;-75
2022/03/17 01:18:54;;;;;;;;;;;;;;;10.17;77.05;101928.94;5106448;28;19920;-75
2022/03/17 01:21:19;;;;;;;;;;;;;;;10.31;77.02;101926.16;5105840;28;19965;-75
2022/03/17 01:23:44;;;;;;;;;;;;;;;10.34;77.17;101923.75;5103911;28;19920;-75
2022/03/17 01:26:09;;;;;;;;;;;;;;;10.35;77.74;101923.78;5106845;28;19920;-75
2022/03/17 01:28:35;;;;;;;;;;;;;;;10.28;78.28;101916.63;5105056;28;20427;-75
2022/03/17 01:31:00;;;;;;;;;;;;;;;10.25;77.43;101913.88;5105445;28;20363;-75
2022/03/17 01:33:25;;;;;;;;;;;;;;;10.24;77.96;101914.72;5107844;28;20006;-75
2022/03/17 01:35:50;;;;;;;;;;;;;;;10.24;77.70;101924.13;5105750;28;19951;-75
2022/03/17 01:38:16;;;;;;;;;;;;;;;10.33;77.59;101930.56;5104919;28;19938;-75
2022/03/17 01:40:41;;;;;;;;;;;;;;;10.39;77.61;101928.28;5107776;28;20439;-75
2022/03/17 01:43:06;;;;;;;;;;;;;;;10.46;77.76;101924.28;5104698;28;20014;-75
2022/03/17 01:45:32;;;;;;;;;;;;;;;10.44;77.33;101910.50;5105058;28;19923;-75
2022/03/17 01:47:57;;;;;;;;;;;;;;;10.44;77.49;101918.22;5106605;28;19923;-75
2022/03/17 01:50:22;;;;;;;;;;;;;;;10.38;78.08;101918.81;5105808;28;19930;-75
2022/03/17 01:52:48;;;;;;;;;;;;;;;10.55;77.50;101931.53;5107573;28;19920;-74
2022/03/17 01:55:14;;;;;;;;;;;;;;;10.52;77.47;101926.25;5105226;28;19920;-73
2022/03/17 01:57:40;;;;;;;;;;;;;;;10.40;78.01;101935.19;5103492;28;19916;-74
2022/03/17 02:00:07;;;;;;;;;;;;;;;10.50;78.33;101935.63;5107613;28;20012;-74
2022/03/17 02:02:32;;;;;;;;;;;;;;;10.53;78.72;101923.75;5100915;28;19916;-74
2022/03/17 02:04:57;;;;;;;;;;;;;;;10.47;80.18;101923.47;5105249;28;19927;-74
2022/03/17 02:07:23;;;;;;;;;;;;;;;10.63;79.27;101925.06;5104937;28;19985;-74
2022/03/17 02:09:49;;;;;;;;;;;;;;;10.57;79.34;101925.66;5104690;28;19919;-74
2022/03/17 02:14:58;;;;;;;;;;;;;;;10.60;79.42;101924.91;5105182;28;19934;-75
2022/03/17 02:17:25;;;;;;;;;;;;;;;10.57;79.48;101927.34;5104384;28;19950;-75
2022/03/17 02:19:51;;;;;;;;;;;;;;;10.63;79.81;101941.38;5105247;28;20062;-75
2022/03/17 02:22:18;;;;;;;;;;;;;;;10.62;80.27;101937.03;5105269;28;20002;-74
2022/03/17 02:27:29;;;;;;;;;;;;;;;10.59;80.79;101938.59;5102030;28;19930;-74
2022/03/17 02:29:54;;;;;;;;;;;;;;;10.60;80.16;101937.75;5105709;28;19924;-75
2022/03/17 02:32:20;;;;;;;;;;;;;;;10.59;80.10;101939.47;5105201;28;19915;-75
2022/03/17 02:34:45;;;;;;;;;;;;;;;10.51;80.50;101935.69;5102994;28;19923;-75
2022/03/17 02:37:12;;;;;;;;;;;;;;;10.51;82.02;101947.66;5104638;28;19942;-75
2022/03/17 02:39:38;;;;;;;;;;;;;;;10.64;80.55;101948.28;5104116;28;20397;-74
2022/03/17 02:42:03;;;;;;;;;;;;;;;10.63;81.05;101956.81;5106915;28;19916;-74
2022/03/17 02:44:28;;;;;;;;;;;;;;;10.57;81.03;101955.66;5104413;28;20362;-75
2022/03/17 02:46:53;;;;;;;;;;;;;;;10.62;80.73;101959.31;5106683;28;20009;-74
2022/03/17 02:49:19;;;;;;;;;;;;;;;10.55;81.95;101970.97;5105671;28;19927;-74
2022/03/17 02:51:46;;;;;;;;;;;;;;;10.59;81.40;101966.88;5102585;28;19920;-74
2022/03/17 02:54:11;;;;;;;;;;;;;;;10.47;81.74;101975.78;5103853;28;20298;-75
2022/03/17 02:56:36;;;;;;;;;;;;;;;10.41;82.54;101978.06;5105128;28;20385;-74
2022/03/17 02:59:02;;;;;;;;;;;;;;;10.44;83.02;101982.50;5104137;28;20085;-74
2022/03/17 03:01:27;;;;;;;;;;;;;;;10.28;84.92;101992.88;5103457;28;20724;-74
2022/03/17 03:03:53;;;;;;;;;;;;;;;10.18;87.56;101986.34;5106711;28;19923;-75
2022/03/17 03:06:18;;;;;;;;;;;;;;;10.08;91.95;101997.91;5103247;28;19973;-75
2022/03/17 03:08:44;;;;;;;;;;;;;;;10.14;93.68;102005.03;5107144;28;19970;-74
2022/03/17 03:11:09;;;;;;;;;;;;;;;10.07;96.35;102011.56;5104999;28;19928;-74
2022/03/17 03:13:36;;;;;;;;;;;;;;;9.96;98.98;102032.41;5105452;28;19919;-74
2022/03/17 03:16:02;;;;;;;;;;;;;;;9.87;96.33;102037.97;5105372;28;19930;-75
2022/03/17 03:18:27;;;;;;;;;;;;;;;9.71;99.16;102040.56;5094245;28;19923;-75
2022/03/17 03:20:53;;;;;;;;;;;;;;;9.63;100.00;102046.19;5110304;28;20007;-75
2022/03/17 03:23:18;;;;;;;;;;;;;;;9.56;100.00;102046.69;5108619;28;19924;-75
2022/03/17 03:25:43;;;;;;;;;;;;;;;9.51;100.00;102060.09;5106553;28;20336;-75
2022/03/17 03:28:09;;;;;;;;;;;;;;;9.42;100.00;102054.50;5101036;28;19920;-75
2022/03/17 03:30:35;;;;;;;;;;;;;;;9.41;100.00;102063.91;5108091;28;19920;-75
2022/03/17 03:33:01;;;;;;;;;;;;;;;9.30;100.00;102067.59;5102239;28;20429;-75
2022/03/17 03:38:10;;;;;;;;;;;;;;;9.21;100.00;102093.63;5102637;28;19964;-75
2022/03/17 03:40:35;;;;;;;;;;;;;;;9.16;100.00;102100.22;5103028;28;19951;-75
2022/03/17 03:43:00;;;;;;;;;;;;;;;9.08;100.00;102102.38;5104858;28;19924;-75
2022/03/17 03:45:26;;;;;;;;;;;;;;;9.04;100.00;102115.84;5103138;28;19926;-76
2022/03/17 03:47:52;;;;;;;;;;;;;;;9.02;100.00;102120.00;5104891;28;19924;-76
2022/03/17 03:50:17;;;;;;;;;;;;;;;9.00;100.00;102125.84;5104705;28;19915;-74
2022/03/17 03:52:43;;;;;;;;;;;;;;;9.01;100.00;102122.47;5105708;28;20421;-74
2022/03/17 03:55:09;;;;;;;;;;;;;;;8.98;100.00;102142.81;5101973;28;19916;-75
2022/03/17 03:57:34;;;;;;;;;;;;;;;8.95;100.00;102145.25;5106358;28;20435;-75
2022/03/17 03:59:59;;;;;;;;;;;;;;;8.91;100.00;102151.00;5103854;28;19967;-75
2022/03/17 04:02:25;;;;;;;;;;;;;;;8.88;100.00;102164.53;5100557;28;20396;-76
2022/03/17 04:04:50;;;;;;;;;;;;;;;8.94;98.44;102167.44;5106090;28;19938;-75
2022/03/17 04:07:18;;;;;;;;;;;;;;;8.87;99.46;102180.72;5090879;28;19970;-75
2022/03/17 04:09:43;;;;;;;;;;;;;;;8.90;98.74;102186.03;5108640;27;20449;-76
2022/03/17 04:12:09;;;;;;;;;;;;;;;8.83;98.21;102189.94;5107583;27;20010;-75
2022/03/17 04:14:35;;;;;;;;;;;;;;;8.78;98.76;102191.34;5106849;28;19916;-75
2022/03/17 04:17:00;;;;;;;;;;;;;;;8.74;98.71;102204.81;5109856;28;19922;-75
2022/03/17 04:19:26;;;;;;;;;;;;;;;8.72;98.08;102201.25;5105683;28;19928;-75
2022/03/17 04:21:51;;;;;;;;;;;;;;;8.70;98.63;102219.94;5109259;28;19919;-74
2022/03/17 04:24:17;;;;;;;;;;;;;;;8.66;99.58;102225.66;5105528;28;19924;-75
2022/03/17 04:26:44;;;;;;;;;;;;;;;8.64;98.16;102238.41;5104425;28;19924;-75
2022/03/17 04:29:10;;;;;;;;;;;;;;;8.60;98.78;102239.91;5104214;28;19920;-75
2022/03/17 04:31:35;;;;;;;;;;;;;;;8.59;100.00;102248.38;5104455;28;20271;-75
2022/03/17 04:34:00;;;;;;;;;;;;;;;8.59;100.00;102263.78;5105519;28;19937;-75
2022/03/17 04:36:26;;;;;;;;;;;;;;;8.57;99.59;102261.94;5106325;28;20422;-75
2022/03/17 04:38:51;;;;;;;;;;;;;;;8.56;99.07;102273.88;5107619;28;19924;-75
2022/03/17 04:41:20;;;;;;;;;;;;;;;8.52;100.00;102281.28;5106586;28;19920;-75
2022/03/17 04:43:45;;;;;;;;;;;;;;;8.37;100.00;102291.50;5108389;28;19920;-75
2022/03/17 04:46:11;;;;;;;;;;;;;;;8.26;100.00;102297.66;5108385;28;19935;-76
2022/03/17 04:48:37;;;;;;;;;;;;;;;8.13;100.00;102297.66;5106854;28;19919;-76
2022/03/17 04:51:02;;;;;;;;;;;;;;;8.06;100.00;102304.09;5107903;28;19922;-76
2022/03/17 04:53:29;;;;;;;;;;;;;;;8.02;100.00;102304.72;5106036;28;19916;-76
2022/03/17 04:55:56;;;;;;;;;;;;;;;7.91;100.00;102309.19;5110787;28;19961;-76
2022/03/17 04:58:21;;;;;;;;;;;;;;;7.79;100.00;102316.09;5109674;28;19924;-76
2022/03/17 05:00:47;;;;;;;;;;;;;;;7.73;100.00;102329.41;5104188;28;19931;-76
2022/03/17 05:03:12;;;;;;;;;;;;;;;7.71;100.00;102340.34;5109291;27;20487;-76
2022/03/17 05:05:38;;;;;;;;;;;;;;;7.74;100.00;102343.09;5109328;28;19920;-76
2022/03/17 05:08:03;;;;;;;;;;;;;;;7.77;100.00;102354.44;5103804;28;19974;-75
2022/03/17 05:10:29;;;;;;;;;;;;;;;7.81;100.00;102370.84;5107860;28;19920;-76
2022/03/17 05:12:55;;;;;;;;;;;;;;;7.78;99.83;102383.47;5108884;28;20010;-76
2022/03/17 05:15:21;;;;;;;;;;;;;;;7.76;98.95;102388.47;5103328;28;19981;-76
2022/03/17 05:17:47;;;;;;;;;;;;;;;7.80;98.18;102387.91;5104686;28;20404;-76
2022/03/17 05:20:13;;;;;;;;;;;;;;;7.79;97.07;102403.16;5102849;28;20450;-76
2022/03/17 05:22:39;;;;;;;;;;;;;;;7.74;96.86;102410.56;5105641;28;19924;-76
2022/03/17 05:25:05;;;;;;;;;;;;;;;7.75;95.14;102426.78;5104662;28;19923;-76
2022/03/17 05:27:30;;;;;;;;;;;;;;;7.67;94.98;102420.31;5105695;28;19996;-75
2022/03/17 05:29:56;;;;;;;;;;;;;;;7.63;94.22;102432.00;5105895;28;19934;-75
2022/03/17 05:32:21;;;;;;;;;;;;;;;7.63;93.92;102434.56;5102584;28;19927;-75
2022/03/17 05:34:46;;;;;;;;;;;;;;;7.60;93.65;102439.50;5103677;28;20354;-75
2022/03/17 05:37:11;;;;;;;;;;;;;;;7.57;93.65;102444.41;5100622;28;19919;-74
2022/03/17 05:39:37;;;;;;;;;;;;;;;7.57;93.16;102457.22;5104459;28;19970;-75
2022/03/17 05:42:02;;;;;;;;;;;;;;;7.57;93.39;102459.78;5101350;28;19924;-74
2022/03/17 05:44:28;;;;;;;;;;;;;;;7.57;93.55;102462.34;5097108;28;19916;-75
2022/03/17 05:46:54;;;;;;;;;;;;;;;7.55;92.72;102463.03;5101414;28;19923;-75
2022/03/17 05:49:19;;;;;;;;;;;;;;;7.53;93.09;102478.31;5099233;28;19934;-75
2022/03/17 05:51:45;;;;;;;;;;;;;;;7.55;93.03;102489.50;5103142;28;20353;-75
2022/03/17 05:54:10;;;;;;;;;;;;;;;7.52;92.64;102500.44;5100944;28;20402;-75
2022/03/17 05:56:35;;;;;;;;;;;;;;;7.56;91.57;102506.63;5104620;28;19928;-75
2022/03/17 05:59:01;;;;;;;;;;;;;;;7.51;91.47;102501.22;5100539;28;19988;-75
2022/03/17 06:01:26;;;;;;;;;;;;;;;7.48;91.32;102507.81;5106881;28;19920;-74
2022/03/17 06:03:51;;;;;;;;;;;;;;;7.48;91.00;102525.72;5114082;28;19920;-75
2022/03/17 06:06:16;;;;;;;;;;;;;;;7.42;91.65;102517.66;5106973;27;19959;-76
2022/03/17 06:08:41;;;;;;;;;;;;;;;7.42;91.12;102527.88;5107629;28;20378;-76
2022/03/17 06:11:07;;;;;;;;;;;;;;;7.37;91.32;102534.34;5104419;28;19955;-76
2022/03/17 06:13:32;;;;;;;;;;;;;;;7.36;91.38;102545.38;5105628;28;19949;-75
2022/03/17 06:15:57;;;;;;;;;;;;;;;7.36;91.05;102560.75;5108463;28;20282;-75
2022/03/17 06:18:22;;;;;;;;;;;;;;;7.34;90.77;102560.66;5106827;28;19963;-76
2022/03/17 06:20:48;;;;;;;;;;;;;;;7.35;90.58;102556.41;5105440;28;19935;-75
2022/03/17 06:23:13;;;;;;;;;;;;;;;7.34;90.38;102567.41;5103597;27;19955;-74
2022/03/17 06:25:38;;;;;;;;;;;;;;;7.35;90.02;102572.66;5101515;28;19924;-75
2022/03/17 06:28:04;;;;;;;;;;;;;;;7.33;90.11;102575.88;5099604;28;20356;-75
2022/03/17 06:30:35;;;;;;;;;;;;;;;7.38;89.53;102583.06;5102862;28;19968;-75
2022/03/17 06:33:01;;;;;;;;;;;;;;;7.35;90.21;102588.00;5096919;28;20024;-75
2022/03/17 06:35:27;;;;;;;;;;;;;;;7.39;89.52;102597.66;5102323;28;19923;-76
2022/03/17 06:37:53;;;;;;;;;;;;;;;7.41;89.13;102597.78;5106339;28;20026;-76
2022/03/17 06:40:19;;;;;;;;;;;;;;;7.36;89.66;102615.38;5105833;28;19950;-75
2022/03/17 06:42:45;;;;;;;;;;;;;;;7.36;89.66;102615.38;5103219;28;19949;-75
2022/03/17 06:45:11;;;;;;;;;;;;;;;7.34;89.99;102622.06;5106890;28;19923;-74
2022/03/17 06:47:37;;;;;;;;;;;;;;;7.39;89.27;102632.59;5105665;28;19920;-75
2022/03/17 06:50:02;;;;;;;;;;;;;;;7.38;90.04;102639.38;5106749;28;19915;-76
2022/03/17 06:52:28;;;;;;;;;;;;;;;7.39;90.21;102650.50;5104278;28;20366;-75
2022/03/17 06:54:53;;;;;;;;;;;;;;;7.39;89.82;102648.81;5106478;28;19973;-75
2022/03/17 06:57:19;;;;;;;;;;;;;;;7.38;89.97;102657.28;5085745;28;19931;-75
2022/03/17 06:59:44;;;;;;;;;;;;;;;7.37;90.03;102663.19;5104781;28;19976;-76
2022/03/17 07:02:10;;;;;;;;;;;;;;;7.40;89.47;102667.63;5106219;28;19955;-76
2022/03/17 07:04:35;;;;;;;;;;;;;;;7.45;90.03;102668.84;5107713;28;20408;-75
2022/03/17 07:07:00;;;;;;;;;;;;;;;7.54;89.93;102659.25;5102087;28;20015;-75
2022/03/17 07:09:25;;;;;;;;;;;;;;;7.59;89.07;102680.06;5103842;28;19923;-75
2022/03/17 07:11:50;;;;;;;;;;;;;;;7.60;89.42;102684.41;5105645;28;20286;-75
2022/03/17 07:14:16;;;;;;;;;;;;;;;7.69;88.59;102685.00;5106939;28;19920;-75
2022/03/17 07:16:41;;;;;;;;;;;;;;;7.72;87.55;102682.69;5104799;28;19924;-75
2022/03/17 07:19:07;;;;;;;;;;;;;;;7.67;88.07;102707.06;5104779;28;19923;-75
2022/03/17 07:21:32;;;;;;;;;;;;;;;7.67;88.28;102700.28;5103975;28;19920;-74
2022/03/17 07:23:58;;;;;;;;;;;;;;;7.67;87.95;102710.50;5106510;28;19966;-74
2022/03/17 07:26:23;;;;;;;;;;;;;;;7.65;88.29;102718.88;5106220;28;19945;-74
2022/03/17 07:28:48;;;;;;;;;;;;;;;7.66;88.58;102729.22;5108065;28;19924;-75
2022/03/17 07:31:13;;;;;;;;;;;;;;;7.64;88.24;102729.88;5103431;28;19942;-74
2022/03/17 07:33:39;;;;;;;;;;;;;;;7.61;88.75;102728.00;5105843;28;19920;-75
2022/03/17 07:36:04;;;;;;;;;;;;;;;7.66;89.63;102729.22;5105592;28;19920;-74
2022/03/17 07:38:30;;;;;;;;;;;;;;;7.71;89.58;102742.34;5104475;28;19916;-73
2022/03/17 07:40:55;;;;;;;;;;;;;;;7.72;89.02;102749.25;5112149;28;20357;-74
2022/03/17 07:43:23;;;;;;;;;;;;;;;7.67;89.18;102750.59;5106519;28;19920;-74
2022/03/17 07:45:48;;;;;;;;;;;;;;;7.64;89.39;102755.50;5110283;28;19931;-75
2022/03/17 07:48:13;;;;;;;;;;;;;;;7.67;90.00;102761.72;5090762;28;19923;-74
2022/03/17 07:50:39;;;;;;;;;;;;;;;7.64;88.95;102761.50;5109833;28;19967;-75
2022/03/17 07:53:05;;;;;;;;;;;;;;;7.64;88.97;102768.28;5106388;28;19927;-74
2022/03/17 07:55:30;;;;;;;;;;;;;;;7.64;89.53;102765.72;5109813;28;19920;-73
2022/03/17 07:57:55;;;;;;;;;;;;;;;7.70;89.19;102771.28;5094814;28;19920;-74
2022/03/17 08:00:21;;;;;;;;;;;;;;;7.74;88.89;102783.53;5109732;28;19927;-73
2022/03/17 08:02:46;;;;;;;;;;;;;;;7.84;88.26;102785.97;5110918;28;19920;-75
2022/03/17 08:05:12;;;;;;;;;;;;;;;7.83;87.55;102786.75;5092255;28;19928;-74
2022/03/17 08:07:38;;;;;;;;;;;;;;;7.82;87.94;102796.84;5107438;28;20075;-74
2022/03/17 08:10:03;;;;;;;;;;;;;;;7.80;87.45;102795.09;5110291;28;20054;-75
2022/03/17 08:12:30;;;;;;;;;;;;;;;7.75;86.88;102819.47;5107308;28;19963;-74
2022/03/17 08:14:55;;;;;;;;;;;;;;;7.72;87.20;102819.28;5108849;28;19916;-74
2022/03/17 08:17:21;;;;;;;;;;;;;;;7.81;86.53;102821.59;5103292;28;19927;-75
2022/03/17 08:19:46;;;;;;;;;;;;;;;7.82;85.88;102820.78;5112611;28;19924;-73
2022/03/17 08:22:11;;;;;;;;;;;;;;;7.88;86.01;102825.47;5106643;28;19920;-74
2022/03/17 08:24:37;;;;;;;;;;;;;;;8.03;86.28;102840.25;5110575;28;19943;-73
2022/03/17 08:27:02;;;;;;;;;;;;;;;8.25;85.17;102834.03;5106922;28;19919;-74
2022/03/17 08:29:30;;;;;;;;;;;;;;;8.45;84.54;102853.41;5108232;28;20015;-74
2022/03/17 08:31:55;;;;;;;;;;;;;;;8.61;83.38;102853.63;5110891;28;20011;-75
2022/03/17 08:34:21;;;;;;;;;;;;;;;8.69;82.27;102857.63;5106693;28;20340;-74
2022/03/17 08:36:46;;;;;;;;;;;;;;;8.74;81.15;102865.63;5109036;28;19920;-75
2022/03/17 08:39:12;;;;;;;;;;;;;;;8.73;81.96;102864.72;5106784;28;19948;-74
2022/03/17 08:41:37;;;;;;;;;;;;;;;8.79;81.62;102874.50;5104845;28;19923;-74
2022/03/17 08:44:02;;;;;;;;;;;;;;;8.92;79.22;102872.00;5111872;28;20434;-74
2022/03/17 08:49:22;;;;;;;;;;;;;;;8.95;78.32;102882.44;5101882;28;20493;-72
2022/03/17 08:51:52;;;;;;;;;;;;;;;8.94;78.37;102890.94;5087195;28;19978;-75
2022/03/17 08:54:20;;;;;;;;;;;;;;;9.09;77.89;102886.81;5108381;28;20482;-75
2022/03/17 08:56:45;;;;;;;;;;;;;;;9.15;76.45;102904.28;5105187;28;19941;-76
2022/03/17 08:59:10;;;;;;;;;;;;;;;9.21;76.89;102898.69;5107687;28;19916;-76
2022/03/17 09:01:37;;;;;;;;;;;;;;;9.18;76.09;102896.81;5106444;28;19952;-77
2022/03/17 09:04:03;;;;;;;;;;;;;;;9.12;75.28;102912.69;5108583;28;19920;-76
2022/03/17 09:06:28;;;;;;;;;;;;;;;9.09;75.10;102917.59;5101639;28;20416;-75
2022/03/17 09:08:54;;;;;;;;;;;;;;;9.11;75.64;102913.47;5109762;28;19951;-72
2022/03/17 09:11:19;;;;;;;;;;;;;;;9.15;75.13;102922.25;5109990;28;21225;-72
2022/03/17 09:13:46;;;;;;;;;;;;;;;9.21;75.51;102921.78;5105770;28;20267;-73
2022/03/17 09:16:12;;;;;;;;;;;;;;;9.30;76.46;102918.16;5106467;28;20290;-73
2022/03/17 09:18:37;;;;;;;;;;;;;;;9.39;74.13;102928.13;5093264;28;19919;-72
2022/03/17 09:21:03;;;;;;;;;;;;;;;9.45;72.99;102925.06;5108623;28;19920;-73
2022/03/17 09:23:32;;;;;;;;;;;;;;;9.55;72.94;102930.03;5110346;28;19924;-73
2022/03/17 09:25:57;;;;;;;;;;;;;;;9.65;71.13;102945.25;5107763;28;19916;-73
2022/03/17 09:28:26;;;;;;;;;;;;;;;9.69;71.63;102952.34;5100781;28;20027;-73
2022/03/17 09:30:51;;;;;;;;;;;;;;;9.72;70.96;102943.97;5109117;28;20255;-73
2022/03/17 09:33:17;;;;;;;;;;;;;;;9.71;71.41;102958.50;5106394;28;19916;-73
2022/03/17 09:35:43;;;;;;;;;;;;;;;9.74;70.97;102955.22;5107928;28;19919;-73
2022/03/17 09:38:09;;;;;;;;;;;;;;;9.75;69.37;102955.31;5108155;28;19922;-73
2022/03/17 09:40:36;;;;;;;;;;;;;;;9.82;70.42;102961.75;5110122;28;20282;-74
2022/03/17 09:43:21;;;;;;;;;;;;;;;9.97;69.42;102960.16;5107013;28;19920;-73
2022/03/17 09:45:50;;;;;;;;;;;;;;;10.03;67.95;102969.94;5105418;28;19972;-72
2022/03/17 09:48:15;;;;;;;;;;;;;;;9.98;70.00;102964.50;5105133;28;19922;-73
2022/03/17 09:50:41;;;;;;;;;;;;;;;9.98;68.02;102966.19;5108449;28;19912;-73
2022/03/17 09:53:07;;;;;;;;;;;;;;;9.93;68.67;102977.06;5102973;28;20371;-72
2022/03/17 09:55:34;;;;;;;;;;;;;;;10.00;69.51;102987.72;5102310;28;19920;-73
2022/03/17 09:57:59;;;;;;;;;;;;;;;10.01;67.03;102989.50;5105188;28;20377;-73
2022/03/17 10:00:47;;;;;;;;;;;;;;;9.95;70.17;102997.75;5104686;28;20012;-73
2022/03/17 10:03:10;;;;;;;;;;;;;;;9.99;69.80;102997.13;5104424;28;19951;-72
2022/03/17 10:05:35;;;;;;;;;;;;;;;10.08;69.45;103013.16;5109629;28;19947;-72
2022/03/17 10:08:00;;;;;;;;;;;;;;;10.18;67.34;103009.47;5107126;28;19920;-74
2022/03/17 10:10:38;;;;;;;;;;;;;;;10.28;67.75;103017.03;5106812;28;20438;-72
2022/03/17 10:13:14;;;;;;;;;;;;;;;10.42;67.17;103017.88;5106096;28;19927;-73
2022/03/17 10:15:40;;;;;;;;;;;;;;;10.53;66.23;103019.44;5101617;28;19927;-74
2022/03/17 10:18:24;;;;;;;;;;;;;;;10.53;64.94;103034.00;5108222;28;19946;-73
2022/03/17 10:21:13;;;;;;;;;;;;;;;10.79;67.10;103031.34;5109018;28;19926;-74
2022/03/17 10:24:01;;;;;;;;;;;;;;;10.92;65.44;103045.84;5101082;28;20298;-74
2022/03/17 10:26:47;;;;;;;;;;;;;;;11.03;65.78;103052.56;5106798;28;19915;-81
2022/03/17 10:29:19;;;;;;;;;;;;;;;11.08;63.28;103058.88;5102338;28;20349;-80
2022/03/17 10:32:05;;;;;;;;;;;;;;;11.01;64.84;103067.03;5105718;28;19919;-81
2022/03/17 10:34:36;;;;;;;;;;;;;;;10.87;63.42;103076.50;5105904;28;19923;-81
2022/03/17 10:37:17;;;;;;;;;;;;;;;10.73;63.76;103078.19;5106660;28;19919;-80
2022/03/17 10:39:46;;;;;;;;;;;;;;;10.62;65.54;103075.75;5106958;28;19924;-80
2022/03/17 10:42:13;;;;;;;;;;;;;;;10.63;63.52;103081.00;5106016;28;19937;-79
2022/03/17 10:44:40;;;;;;;;;;;;;;;10.69;64.69;103076.22;5102012;28;19923;-80
2022/03/17 10:47:05;;;;;;;;;;;;;;;10.78;63.32;103085.31;5106310;28;20363;-79
2022/03/17 10:49:31;;;;;;;;;;;;;;;10.90;62.03;103091.22;5105119;28;19920;-80
2022/03/17 10:51:56;;;;;;;;;;;;;;;10.91;60.59;103093.00;5103964;28;19916;-80
2022/03/17 10:54:22;;;;;;;;;;;;;;;10.95;59.54;103102.69;5102494;28;19916;-80
2022/03/17 10:57:02;;;;;;;;;;;;;;;11.11;60.26;103097.72;5100479;28;19920;-80
2022/03/17 10:59:36;;;;;;;;;;;;;;;11.39;59.91;103096.78;5103850;28;19919;-80
2022/03/17 11:02:04;;;;;;;;;;;;;;;11.89;59.46;103109.22;5106107;28;19919;-73
2022/03/17 11:04:30;;;;;;;;;;;;;;;12.26;60.43;103109.69;5108874;28;20010;-72
2022/03/17 11:06:56;;;;;;;;;;;;;;;12.34;58.72;103109.31;5101300;28;20596;-74
2022/03/17 11:09:23;;;;;;;;;;;;;;;12.51;56.68;103111.97;5102668;28;20014;-74
2022/03/17 11:11:49;;;;;;;;;;;;;;;12.78;56.88;103110.88;5101733;28;20015;-73
2022/03/17 11:14:14;;;;;;;;;;;;;;;12.92;57.66;103119.38;5103478;28;19963;-73
2022/03/17 11:16:41;;;;;;;;;;;;;;;13.49;55.89;103123.31;5109631;28;19927;-73
2022/03/17 11:19:12;;;;;;;;;;;;;;;14.23;52.93;103138.28;5107920;28;20007;-73
2022/03/17 11:21:38;;;;;;;;;;;;;;;14.49;51.17;103132.69;5108234;28;19971;-74
2022/03/17 11:24:07;;;;;;;;;;;;;;;14.61;51.90;103142.75;5089738;28;20402;-73
2022/03/17 11:26:37;;;;;;;;;;;;;;;14.42;49.76;103146.13;5109552;28;19923;-76
2022/03/17 11:29:10;;;;;;;;;;;;;;;14.08;51.19;103150.47;5114022;28;19943;-73
2022/03/17 11:31:52;;;;;;;;;;;;;;;14.13;53.79;103147.28;5111696;28;20348;-73
2022/03/17 11:34:39;;;;;;;;;;;;;;;14.11;50.93;103148.03;5111295;28;20393;-74
2022/03/17 11:37:16;;;;;;;;;;;;;;;14.07;51.07;103157.31;5110238;28;19920;-72
2022/03/17 11:39:49;;;;;;;;;;;;;;;14.11;51.64;103160.97;5108778;28;19919;-74
2022/03/17 11:42:34;;;;;;;;;;;;;;;13.94;53.82;103154.94;5109375;28;20392;-74
2022/03/17 11:45:15;;;;;;;;;;;;;;;13.64;51.90;103157.72;5106657;28;20363;-74
2022/03/17 11:47:45;;;;;;;;;;;;;;;14.05;52.33;103158.06;5105920;28;19923;-73
2022/03/17 11:50:25;;;;;;;;;;;;;;;14.55;50.54;103163.16;5110112;28;19916;-72
2022/03/17 11:52:51;;;;;;;;;;;;;;;15.02;49.22;103159.34;5100208;28;20386;-73
2022/03/17 11:55:30;;;;;;;;;;;;;;;15.39;48.69;103159.31;5107895;28;19955;-73
2022/03/17 11:58:14;;;;;;;;;;;;;;;15.80;47.69;103162.88;5109441;28;19916;-74
2022/03/17 12:00:44;;;;;;;;;;;;;;;16.04;46.33;103166.53;5110364;28;19919;-74
2022/03/17 12:03:10;;;;;;;;;;;;;;;16.25;45.55;103160.44;5104465;28;19916;-73
2022/03/17 12:05:39;;;;;;;;;;;;;;;16.16;47.37;103165.28;5107799;28;20294;-74
2022/03/17 12:08:04;;;;;;;;;;;;;;;15.66;46.83;103180.44;5107310;28;19924;-73
2022/03/17 12:10:49;;;;;;;;;;;;;;;15.28;46.82;103181.28;5110049;28;20298;-73
2022/03/17 12:13:21;;;;;;;;;;;;;;;15.46;47.97;103179.50;5105632;28;20022;-73
2022/03/17 12:15:54;;;;;;;;;;;;;;;15.92;46.77;103188.47;5107458;28;20010;-72
2022/03/17 12:18:20;;;;;;;;;;;;;;;16.40;48.25;103176.66;5105602;28;19916;-72
2022/03/17 12:20:46;;;;;;;;;;;;;;;16.73;44.36;103161.56;5106807;28;20012;-71
2022/03/17 12:23:30;;;;;;;;;;;;;;;16.92;44.99;103173.56;5103061;28;19998;-71
2022/03/17 12:26:03;;;;;;;;;;;;;;;17.23;41.43;103186.03;5102008;28;19972;-73
2022/03/17 12:28:30;;;;;;;;;;;;;;;16.88;41.22;103177.75;5115946;27;19915;-75
2022/03/17 12:30:55;;;;;;;;;;;;;;;16.63;40.93;103195.78;5109457;28;19916;-75
2022/03/17 12:33:20;;;;;;;;;;;;;;;16.60;41.88;103190.44;5107629;28;19924;-75
2022/03/17 12:35:48;;;;;;;;;;;;;;;16.75;42.36;103182.44;5107751;28;19927;-74
2022/03/17 12:38:18;;;;;;;;;;;;;;;16.66;40.87;103190.69;5108251;28;19916;-74
2022/03/17 12:40:45;;;;;;;;;;;;;;;16.66;43.18;103195.00;5109458;28;19928;-74
2022/03/17 12:43:15;;;;;;;;;;;;;;;16.74;41.78;103191.03;5106671;28;19924;-74
2022/03/17 12:45:41;;;;;;;;;;;;;;;16.70;42.01;103195.22;5107201;28;19976;-74
2022/03/17 12:48:08;;;;;;;;;;;;;;;16.82;40.94;103194.84;5107722;28;20418;-75
2022/03/17 12:50:34;;;;;;;;;;;;;;;16.86;37.14;103189.78;5107993;28;19978;-74
2022/03/17 12:52:59;;;;;;;;;;;;;;;16.75;39.37;103185.91;5106041;28;20353;-72